sensor_id;sensor_type;location;lat;lon;timestamp;pressure;altitude;pressure_sealevel;temperature;humidity
72525;BME280;60547;48.502;8.996;2022-09-01T00:01:14;98124.53;;;14.36;87.38
72525;BME280;60547;48.502;8.996;2022-09-01T00:03:48;98123.84;;;14.45;87.24
72525;BME280;60547;48.502;8.996;2022-09-01T00:06:22;98107.16;;;14.41;86.93
72525;BME280;60547;48.502;8.996;2022-09-01T00:08:53;98119.50;;;14.44;86.95
72525;BME280;60547;48.502;8.996;2022-09-01T00:11:20;98108.34;;;14.31;87.34
72525;BME280;60547;48.502;8.996;2022-09-01T00:13:47;98122.91;;;14.26;88.27
72525;BME280;60547;48.502;8.996;2022-09-01T00:16:14;98131.31;;;14.26;87.92
72525;BME280;60547;48.502;8.996;2022-09-01T00:18:42;98129.94;;;14.31;87.90
72525;BME280;60547;48.502;8.996;2022-09-01T00:21:09;98132.75;;;14.31;87.79
72525;BME280;60547;48.502;8.996;2022-09-01T00:23:35;98121.88;;;14.33;87.44
72525;BME280;60547;48.502;8.996;2022-09-01T00:26:00;98120.56;;;14.25;88.03
72525;BME280;60547;48.502;8.996;2022-09-01T00:28:26;98129.38;;;14.36;87.66
72525;BME280;60547;48.502;8.996;2022-09-01T00:30:51;98121.28;;;14.38;87.69
72525;BME280;60547;48.502;8.996;2022-09-01T00:33:18;98123.63;;;14.39;87.77
72525;BME280;60547;48.502;8.996;2022-09-01T00:35:43;98121.09;;;14.32;87.70
72525;BME280;60547;48.502;8.996;2022-09-01T00:38:09;98119.66;;;14.28;87.84
72525;BME280;60547;48.502;8.996;2022-09-01T00:40:34;98127.94;;;14.31;88.08
72525;BME280;60547;48.502;8.996;2022-09-01T00:43:12;98121.09;;;14.32;88.47
72525;BME280;60547;48.502;8.996;2022-09-01T00:45:39;98119.22;;;14.29;88.56
72525;BME280;60547;48.502;8.996;2022-09-01T00:48:06;98120.97;;;14.36;88.80
72525;BME280;60547;48.502;8.996;2022-09-01T00:50:34;98122.66;;;14.33;88.09
72525;BME280;60547;48.502;8.996;2022-09-01T00:53:00;98111.47;;;14.33;88.60
72525;BME280;60547;48.502;8.996;2022-09-01T00:55:29;98117.56;;;14.41;88.74
72525;BME280;60547;48.502;8.996;2022-09-01T00:57:55;98113.44;;;14.45;88.63
72525;BME280;60547;48.502;8.996;2022-09-01T01:00:24;98100.13;;;14.37;88.34
72525;BME280;60547;48.502;8.996;2022-09-01T01:02:51;98112.97;;;14.47;88.31
72525;BME280;60547;48.502;8.996;2022-09-01T01:05:44;98103.72;;;14.37;88.00
72525;BME280;60547;48.502;8.996;2022-09-01T01:08:08;98116.47;;;14.38;88.30
72525;BME280;60547;48.502;8.996;2022-09-01T01:10:38;98110.22;;;14.34;88.48
72525;BME280;60547;48.502;8.996;2022-09-01T01:13:10;98119.59;;;14.40;88.66
72525;BME280;60547;48.502;8.996;2022-09-01T01:15:38;98118.50;;;14.38;88.78
72525;BME280;60547;48.502;8.996;2022-09-01T01:18:05;98110.53;;;14.36;88.64
72525;BME280;60547;48.502;8.996;2022-09-01T01:20:32;98110.88;;;14.38;88.34
72525;BME280;60547;48.502;8.996;2022-09-01T01:23:39;98111.88;;;14.44;88.06
72525;BME280;60547;48.502;8.996;2022-09-01T01:26:09;98107.41;;;14.34;88.16
72525;BME280;60547;48.502;8.996;2022-09-01T01:28:38;98103.38;;;14.35;87.23
72525;BME280;60547;48.502;8.996;2022-09-01T01:31:10;98109.91;;;14.32;87.00
72525;BME280;60547;48.502;8.996;2022-09-01T01:33:42;98112.06;;;14.28;87.50
72525;BME280;60547;48.502;8.996;2022-09-01T01:36:18;98111.72;;;14.26;87.06
72525;BME280;60547;48.502;8.996;2022-09-01T01:38:47;98110.94;;;14.26;87.12
72525;BME280;60547;48.502;8.996;2022-09-01T01:41:15;98114.19;;;14.24;87.41
72525;BME280;60547;48.502;8.996;2022-09-01T01:43:44;98112.31;;;14.21;87.34
72525;BME280;60547;48.502;8.996;2022-09-01T01:46:10;98118.03;;;14.17;87.43
72525;BME280;60547;48.502;8.996;2022-09-01T01:48:41;98123.19;;;14.19;87.30
72525;BME280;60547;48.502;8.996;2022-09-01T01:51:08;98124.41;;;14.18;87.37
72525;BME280;60547;48.502;8.996;2022-09-01T01:53:35;98124.03;;;14.07;87.71
72525;BME280;60547;48.502;8.996;2022-09-01T01:56:01;98129.69;;;14.16;87.98
72525;BME280;60547;48.502;8.996;2022-09-01T01:58:27;98125.91;;;14.10;88.02
72525;BME280;60547;48.502;8.996;2022-09-01T02:00:57;98121.88;;;14.11;87.88
72525;BME280;60547;48.502;8.996;2022-09-01T02:03:26;98126.69;;;14.10;88.47
72525;BME280;60547;48.502;8.996;2022-09-01T02:05:54;98127.41;;;14.02;88.61
72525;BME280;60547;48.502;8.996;2022-09-01T02:08:22;98122.38;;;13.97;88.59
72525;BME280;60547;48.502;8.996;2022-09-01T02:10:53;98134.88;;;14.05;88.49
72525;BME280;60547;48.502;8.996;2022-09-01T02:13:21;98125.06;;;14.00;87.54
72525;BME280;60547;48.502;8.996;2022-09-01T02:15:54;98126.16;;;14.03;87.62
72525;BME280;60547;48.502;8.996;2022-09-01T02:18:21;98124.59;;;14.02;87.00
72525;BME280;60547;48.502;8.996;2022-09-01T02:20:50;98123.38;;;14.03;86.75
72525;BME280;60547;48.502;8.996;2022-09-01T02:23:18;98117.38;;;13.92;86.68
72525;BME280;60547;48.502;8.996;2022-09-01T02:25:48;98119.50;;;13.87;87.25
72525;BME280;60547;48.502;8.996;2022-09-01T02:28:16;98119.63;;;13.84;87.52
72525;BME280;60547;48.502;8.996;2022-09-01T02:30:49;98111.03;;;13.78;87.25
72525;BME280;60547;48.502;8.996;2022-09-01T02:33:17;98123.53;;;13.86;87.76
72525;BME280;60547;48.502;8.996;2022-09-01T02:35:51;98117.69;;;13.94;87.34
72525;BME280;60547;48.502;8.996;2022-09-01T02:38:17;98124.06;;;13.94;87.14
72525;BME280;60547;48.502;8.996;2022-09-01T02:40:48;98120.63;;;13.90;86.94
72525;BME280;60547;48.502;8.996;2022-09-01T02:43:15;98123.53;;;13.86;86.96
72525;BME280;60547;48.502;8.996;2022-09-01T02:45:46;98121.00;;;13.79;87.38
72525;BME280;60547;48.502;8.996;2022-09-01T02:48:12;98116.38;;;13.85;87.25
72525;BME280;60547;48.502;8.996;2022-09-01T02:50:39;98114.41;;;13.73;87.60
72525;BME280;60547;48.502;8.996;2022-09-01T02:53:07;98122.22;;;13.78;87.80
72525;BME280;60547;48.502;8.996;2022-09-01T02:55:38;98125.47;;;13.77;87.33
72525;BME280;60547;48.502;8.996;2022-09-01T02:58:04;98125.03;;;13.78;87.55
72525;BME280;60547;48.502;8.996;2022-09-01T03:00:29;98122.22;;;13.78;87.29
72525;BME280;60547;48.502;8.996;2022-09-01T03:02:59;98107.25;;;13.72;87.63
72525;BME280;60547;48.502;8.996;2022-09-01T03:05:28;98118.19;;;13.79;88.27
72525;BME280;60547;48.502;8.996;2022-09-01T03:07:59;98111.03;;;13.78;88.23
72525;BME280;60547;48.502;8.996;2022-09-01T03:10:28;98110.47;;;13.83;88.87
72525;BME280;60547;48.502;8.996;2022-09-01T03:13:00;98102.97;;;13.80;88.74
72525;BME280;60547;48.502;8.996;2022-09-01T03:15:27;98108.56;;;13.80;88.88
72525;BME280;60547;48.502;8.996;2022-09-01T03:17:52;98102.97;;;13.80;88.59
72525;BME280;60547;48.502;8.996;2022-09-01T03:20:18;98095.81;;;13.79;89.17
72525;BME280;60547;48.502;8.996;2022-09-01T03:22:44;98103.44;;;13.79;89.51
72525;BME280;60547;48.502;8.996;2022-09-01T03:25:12;98102.31;;;13.76;89.35
72525;BME280;60547;48.502;8.996;2022-09-01T03:27:37;98109.69;;;13.83;89.59
72525;BME280;60547;48.502;8.996;2022-09-01T03:30:03;98102.66;;;13.78;89.43
72525;BME280;60547;48.502;8.996;2022-09-01T03:32:29;98102.97;;;13.80;89.48
72525;BME280;60547;48.502;8.996;2022-09-01T03:34:54;98112.47;;;13.83;89.92
72525;BME280;60547;48.502;8.996;2022-09-01T03:37:20;98114.81;;;13.84;89.65
72525;BME280;60547;48.502;8.996;2022-09-01T03:39:47;98118.59;;;13.90;89.60
72525;BME280;60547;48.502;8.996;2022-09-01T03:42:12;98114.56;;;13.92;89.10
72525;BME280;60547;48.502;8.996;2022-09-01T03:44:44;98102.66;;;13.78;89.14
72525;BME280;60547;48.502;8.996;2022-09-01T03:47:10;98109.88;;;13.88;89.16
72525;BME280;60547;48.502;8.996;2022-09-01T03:49:39;98121.06;;;13.88;89.02
72525;BME280;60547;48.502;8.996;2022-09-01T03:52:08;98117.16;;;13.86;88.98
72525;BME280;60547;48.502;8.996;2022-09-01T03:54:35;98109.81;;;13.79;89.27
72525;BME280;60547;48.502;8.996;2022-09-01T03:57:00;98119.75;;;13.80;89.45
72525;BME280;60547;48.502;8.996;2022-09-01T03:59:26;98110.84;;;13.73;89.05
72525;BME280;60547;48.502;8.996;2022-09-01T04:01:52;98123.78;;;13.79;88.85
72525;BME280;60547;48.502;8.996;2022-09-01T04:04:18;98119.75;;;13.80;89.43
72525;BME280;60547;48.502;8.996;2022-09-01T04:06:44;98128.81;;;13.84;89.38
72525;BME280;60547;48.502;8.996;2022-09-01T04:09:10;98120.53;;;13.81;89.66
72525;BME280;60547;48.502;8.996;2022-09-01T04:11:37;98117.28;;;13.82;89.73
72525;BME280;60547;48.502;8.996;2022-09-01T04:14:04;98114.50;;;13.82;89.56
72525;BME280;60547;48.502;8.996;2022-09-01T04:16:31;98106.69;;;13.77;89.56
72525;BME280;60547;48.502;8.996;2022-09-01T04:19:19;98121.97;;;13.85;89.43
72525;BME280;60547;48.502;8.996;2022-09-01T04:21:48;98099.97;;;13.75;89.62
72525;BME280;60547;48.502;8.996;2022-09-01T04:24:15;98109.81;;;13.79;89.52
72525;BME280;60547;48.502;8.996;2022-09-01T04:26:41;98115.16;;;13.86;88.38
72525;BME280;60547;48.502;8.996;2022-09-01T04:29:07;98115.47;;;13.88;88.23
72525;BME280;60547;48.502;8.996;2022-09-01T04:31:35;98107.66;;;13.83;87.94
72525;BME280;60547;48.502;8.996;2022-09-01T04:34:02;98113.00;;;13.90;88.06
72525;BME280;60547;48.502;8.996;2022-09-01T04:36:29;98099.06;;;13.78;88.28
72525;BME280;60547;48.502;8.996;2022-09-01T04:39:00;98118.59;;;13.90;87.44
72525;BME280;60547;48.502;8.996;2022-09-01T04:41:28;98115.03;;;13.90;87.85
72525;BME280;60547;48.502;8.996;2022-09-01T04:43:57;98113.91;;;13.87;88.01
72525;BME280;60547;48.502;8.996;2022-09-01T04:46:25;98105.78;;;13.80;88.28
72525;BME280;60547;48.502;8.996;2022-09-01T04:48:54;98106.56;;;13.81;88.38
72525;BME280;60547;48.502;8.996;2022-09-01T04:51:20;98102.97;;;13.80;88.80
72525;BME280;60547;48.502;8.996;2022-09-01T04:53:46;98108.31;;;13.87;88.25
72525;BME280;60547;48.502;8.996;2022-09-01T04:56:18;98103.06;;;13.89;87.86
72525;BME280;60547;48.502;8.996;2022-09-01T04:58:45;98102.84;;;13.84;88.04
72525;BME280;60547;48.502;8.996;2022-09-01T05:01:20;98117.94;;;13.86;88.27
72525;BME280;60547;48.502;8.996;2022-09-01T05:03:47;98113.91;;;13.87;87.55
72525;BME280;60547;48.502;8.996;2022-09-01T05:06:22;98114.03;;;13.84;87.18
72525;BME280;60547;48.502;8.996;2022-09-01T05:08:48;98115.47;;;13.88;87.62
72525;BME280;60547;48.502;8.996;2022-09-01T05:11:14;98117.69;;;13.94;87.96
72525;BME280;60547;48.502;8.996;2022-09-01T05:13:44;98113.00;;;13.90;87.49
72525;BME280;60547;48.502;8.996;2022-09-01T05:16:12;98111.44;;;13.89;87.62
72525;BME280;60547;48.502;8.996;2022-09-01T05:18:41;98114.25;;;13.89;86.92
72525;BME280;60547;48.502;8.996;2022-09-01T05:21:14;98116.13;;;13.93;86.86
72525;BME280;60547;48.502;8.996;2022-09-01T05:23:45;98117.69;;;13.94;86.92
72525;BME280;60547;48.502;8.996;2022-09-01T05:26:16;98110.66;;;13.89;87.27
72525;BME280;60547;48.502;8.996;2022-09-01T05:28:47;98117.50;;;13.88;87.58
72525;BME280;60547;48.502;8.996;2022-09-01T05:31:13;98126.91;;;13.81;87.49
72525;BME280;60547;48.502;8.996;2022-09-01T05:33:39;98116.06;;;13.83;87.35
72525;BME280;60547;48.502;8.996;2022-09-01T05:36:11;98117.03;;;13.89;87.45
72525;BME280;60547;48.502;8.996;2022-09-01T05:38:38;98116.91;;;13.93;87.56
72525;BME280;60547;48.502;8.996;2022-09-01T05:41:08;98113.38;;;13.80;88.03
72525;BME280;60547;48.502;8.996;2022-09-01T05:43:35;98106.56;;;13.81;88.60
72525;BME280;60547;48.502;8.996;2022-09-01T05:46:06;98112.69;;;13.88;88.37
72525;BME280;60547;48.502;8.996;2022-09-01T05:48:31;98123.41;;;13.90;88.51
72525;BME280;60547;48.502;8.996;2022-09-01T05:51:04;98118.59;;;13.90;88.26
72525;BME280;60547;48.502;8.996;2022-09-01T05:53:31;98109.63;;;13.96;87.78
72525;BME280;60547;48.502;8.996;2022-09-01T05:55:59;98107.81;;;14.02;87.68
72525;BME280;60547;48.502;8.996;2022-09-01T05:58:31;98113.16;;;14.09;87.33
72525;BME280;60547;48.502;8.996;2022-09-01T06:00:57;98105.88;;;14.11;87.55
72525;BME280;60547;48.502;8.996;2022-09-01T06:03:23;98123.97;;;14.19;87.52
72525;BME280;60547;48.502;8.996;2022-09-01T06:05:51;98111.06;;;14.22;87.35
72525;BME280;60547;48.502;8.996;2022-09-01T06:08:20;98112.19;;;14.25;87.61
72525;BME280;60547;48.502;8.996;2022-09-01T06:10:48;98117.66;;;14.28;87.34
72525;BME280;60547;48.502;8.996;2022-09-01T06:13:16;98125.00;;;14.35;87.46
72525;BME280;60547;48.502;8.996;2022-09-01T06:15:50;98115.13;;;14.43;86.02
72525;BME280;60547;48.502;8.996;2022-09-01T06:18:17;98117.56;;;14.41;86.45
72525;BME280;60547;48.502;8.996;2022-09-01T06:20:45;98117.56;;;14.41;86.97
72525;BME280;60547;48.502;8.996;2022-09-01T06:23:12;98114.47;;;14.17;87.06
72525;BME280;60547;48.502;8.996;2022-09-01T06:25:44;98120.91;;;14.05;88.11
72525;BME280;60547;48.502;8.996;2022-09-01T06:28:13;98135.03;;;14.23;87.42
72525;BME280;60547;48.502;8.996;2022-09-01T06:30:39;98128.78;;;14.19;87.58
72525;BME280;60547;48.502;8.996;2022-09-01T06:33:05;98135.34;;;14.25;87.73
72525;BME280;60547;48.502;8.996;2022-09-01T06:35:38;98134.00;;;14.30;87.83
72525;BME280;60547;48.502;8.996;2022-09-01T06:38:05;98138.16;;;14.25;88.14
72525;BME280;60547;48.502;8.996;2022-09-01T06:40:31;98125.13;;;14.31;87.24
72525;BME280;60547;48.502;8.996;2022-09-01T06:42:58;98130.78;;;14.40;88.14
72525;BME280;60547;48.502;8.996;2022-09-01T06:45:24;98124.88;;;14.38;88.57
72525;BME280;60547;48.502;8.996;2022-09-01T06:47:51;98123.06;;;14.44;88.11
72525;BME280;60547;48.502;8.996;2022-09-01T06:50:21;98117.00;;;14.24;87.98
72525;BME280;60547;48.502;8.996;2022-09-01T06:52:50;98125.47;;;14.33;88.70
72525;BME280;60547;48.502;8.996;2022-09-01T06:55:26;98132.13;;;14.48;88.42
72525;BME280;60547;48.502;8.996;2022-09-01T06:57:56;98135.44;;;14.56;87.83
72525;BME280;60547;48.502;8.996;2022-09-01T07:00:23;98142.78;;;14.63;86.83
72525;BME280;60547;48.502;8.996;2022-09-01T07:02:54;98135.81;;;14.67;87.22
72525;BME280;60547;48.502;8.996;2022-09-01T07:05:20;98136.00;;;14.73;87.31
72525;BME280;60547;48.502;8.996;2022-09-01T07:07:50;98133.19;;;14.73;87.15
72525;BME280;60547;48.502;8.996;2022-09-01T07:10:22;98138.66;;;14.76;86.81
72525;BME280;60547;48.502;8.996;2022-09-01T07:12:49;98139.50;;;14.86;86.85
72525;BME280;60547;48.502;8.996;2022-09-01T07:15:15;98135.16;;;14.94;86.64
72525;BME280;60547;48.502;8.996;2022-09-01T07:17:49;98131.91;;;14.96;86.60
72525;BME280;60547;48.502;8.996;2022-09-01T07:20:18;98143.28;;;15.01;86.13
72525;BME280;60547;48.502;8.996;2022-09-01T07:22:46;98142.09;;;15.11;86.57
72525;BME280;60547;48.502;8.996;2022-09-01T07:25:11;98134.00;;;15.13;85.67
72525;BME280;60547;48.502;8.996;2022-09-01T07:27:39;98144.16;;;15.20;85.28
72525;BME280;60547;48.502;8.996;2022-09-01T07:30:05;98142.75;;;15.25;84.96
72525;BME280;60547;48.502;8.996;2022-09-01T07:32:36;98141.69;;;15.31;84.77
72525;BME280;60547;48.502;8.996;2022-09-01T07:35:10;98136.44;;;15.51;85.02
72525;BME280;60547;48.502;8.996;2022-09-01T07:37:36;98143.03;;;15.58;84.35
72525;BME280;60547;48.502;8.996;2022-09-01T07:40:11;98144.59;;;15.59;83.92
72525;BME280;60547;48.502;8.996;2022-09-01T07:42:52;98142.13;;;15.70;84.33
72525;BME280;60547;48.502;8.996;2022-09-01T07:45:18;98144.00;;;15.73;84.60
72525;BME280;60547;48.502;8.996;2022-09-01T07:47:44;98142.75;;;15.83;83.69
72525;BME280;60547;48.502;8.996;2022-09-01T07:50:11;98154.00;;;16.01;83.47
72525;BME280;60547;48.502;8.996;2022-09-01T07:52:38;98147.59;;;16.01;83.10
72525;BME280;60547;48.502;8.996;2022-09-01T07:55:12;98147.78;;;16.06;82.82
72525;BME280;60547;48.502;8.996;2022-09-01T07:57:39;98144.19;;;16.06;83.01
72525;BME280;60547;48.502;8.996;2022-09-01T08:00:08;98150.88;;;16.08;83.56
72525;BME280;60547;48.502;8.996;2022-09-01T08:02:35;98141.38;;;16.15;82.66
72525;BME280;60547;48.502;8.996;2022-09-01T08:05:08;98144.19;;;16.24;82.39
72525;BME280;60547;48.502;8.996;2022-09-01T08:07:38;98138.56;;;16.33;82.46
72525;BME280;60547;48.502;8.996;2022-09-01T08:10:05;98137.75;;;16.51;82.20
72525;BME280;60547;48.502;8.996;2022-09-01T08:12:32;98145.06;;;16.58;82.62
72525;BME280;60547;48.502;8.996;2022-09-01T08:15:00;98139.44;;;16.58;81.68
72525;BME280;60547;48.502;8.996;2022-09-01T08:17:26;98142.88;;;16.62;81.96
72525;BME280;60547;48.502;8.996;2022-09-01T08:19:51;98142.28;;;16.67;82.02
72525;BME280;60547;48.502;8.996;2022-09-01T08:22:17;98139.13;;;16.74;81.61
72525;BME280;60547;48.502;8.996;2022-09-01T08:24:47;98143.34;;;16.69;81.70
72525;BME280;60547;48.502;8.996;2022-09-01T08:27:13;98142.25;;;16.76;81.24
72525;BME280;60547;48.502;8.996;2022-09-01T08:29:38;98148.28;;;16.93;81.24
72525;BME280;60547;48.502;8.996;2022-09-01T08:32:04;98147.38;;;16.87;82.21
72525;BME280;60547;48.502;8.996;2022-09-01T08:34:31;98152.22;;;16.86;82.43
72525;BME280;60547;48.502;8.996;2022-09-01T08:36:57;98146.22;;;17.02;81.97
72525;BME280;60547;48.502;8.996;2022-09-01T08:39:22;98141.41;;;16.94;82.36
72525;BME280;60547;48.502;8.996;2022-09-01T08:47:14;98153.19;;;17.49;80.79
72525;BME280;60547;48.502;8.996;2022-09-01T08:49:42;98148.44;;;17.64;79.33
72525;BME280;60547;48.502;8.996;2022-09-01T08:55:02;98147.78;;;17.93;79.86
72525;BME280;60547;48.502;8.996;2022-09-01T08:57:36;98139.38;;;18.08;78.71
72525;BME280;60547;48.502;8.996;2022-09-01T09:00:08;98135.81;;;18.22;77.54
72525;BME280;60547;48.502;8.996;2022-09-01T09:05:27;98136.41;;;18.65;73.09
72525;BME280;60547;48.502;8.996;2022-09-01T09:10:40;98155.94;;;18.83;68.98
72525;BME280;60547;48.502;8.996;2022-09-01T09:13:23;98139.59;;;18.87;70.02
72525;BME280;60547;48.502;8.996;2022-09-01T09:16:01;98130.81;;;19.15;68.09
72525;BME280;60547;48.502;8.996;2022-09-01T09:19:09;98152.78;;;19.25;66.43
72525;BME280;60547;48.502;8.996;2022-09-01T09:21:38;98136.34;;;19.24;65.03
72525;BME280;60547;48.502;8.996;2022-09-01T09:24:33;98139.91;;;19.39;65.04
72525;BME280;60547;48.502;8.996;2022-09-01T09:27:33;98133.97;;;19.37;64.49
72525;BME280;60547;48.502;8.996;2022-09-01T09:30:01;98135.16;;;19.30;65.20
72525;BME280;60547;48.502;8.996;2022-09-01T09:32:59;98141.06;;;19.47;64.23
72525;BME280;60547;48.502;8.996;2022-09-01T09:38:20;98133.97;;;19.37;65.58
72525;BME280;60547;48.502;8.996;2022-09-01T09:41:07;98136.97;;;19.48;68.82
72525;BME280;60547;48.502;8.996;2022-09-01T09:43:36;98133.63;;;19.64;66.90
72525;BME280;60547;48.502;8.996;2022-09-01T09:48:49;98124.38;;;19.84;65.03
72525;BME280;60547;48.502;8.996;2022-09-01T09:51:30;98118.25;;;20.06;64.67
72525;BME280;60547;48.502;8.996;2022-09-01T09:54:13;98126.13;;;20.22;64.18
72525;BME280;60547;48.502;8.996;2022-09-01T09:56:40;98125.84;;;20.20;62.08
72525;BME280;60547;48.502;8.996;2022-09-01T10:01:47;98124.16;;;20.08;62.72
72525;BME280;60547;48.502;8.996;2022-09-01T10:04:31;98118.16;;;20.21;63.02
72525;BME280;60547;48.502;8.996;2022-09-01T10:06:57;98123.94;;;20.32;61.45
72525;BME280;60547;48.502;8.996;2022-09-01T10:11:51;98116.94;;;20.27;61.44
72525;BME280;60547;48.502;8.996;2022-09-01T10:14:22;98111.50;;;20.44;61.20
72525;BME280;60547;48.502;8.996;2022-09-01T10:17:05;98117.09;;;20.39;59.99
72525;BME280;60547;48.502;8.996;2022-09-01T10:19:33;98117.22;;;20.50;61.46
72525;BME280;60547;48.502;8.996;2022-09-01T10:21:59;98120.53;;;20.48;61.25
72525;BME280;60547;48.502;8.996;2022-09-01T10:24:29;98115.44;;;20.52;59.13
72525;BME280;60547;48.502;8.996;2022-09-01T10:27:01;98107.66;;;20.73;59.40
72525;BME280;60547;48.502;8.996;2022-09-01T10:29:40;98098.41;;;20.47;58.38
72525;BME280;60547;48.502;8.996;2022-09-01T10:32:12;98093.63;;;20.32;58.42
72525;BME280;60547;48.502;8.996;2022-09-01T10:34:40;98102.19;;;20.18;59.37
72525;BME280;60547;48.502;8.996;2022-09-01T10:37:07;98103.28;;;20.00;58.34
72525;BME280;60547;48.502;8.996;2022-09-01T10:39:33;98100.34;;;20.15;61.84
72525;BME280;60547;48.502;8.996;2022-09-01T10:41:59;98094.88;;;20.52;57.35
72525;BME280;60547;48.502;8.996;2022-09-01T10:44:37;98095.78;;;20.69;57.22
72525;BME280;60547;48.502;8.996;2022-09-01T10:47:32;98095.25;;;20.65;57.46
72525;BME280;60547;48.502;8.996;2022-09-01T10:50:03;98093.88;;;20.55;56.70
72525;BME280;60547;48.502;8.996;2022-09-01T10:55:14;98094.72;;;20.92;55.96
72525;BME280;60547;48.502;8.996;2022-09-01T10:58:03;98095.41;;;20.56;55.28
72525;BME280;60547;48.502;8.996;2022-09-01T11:05:57;98085.53;;;21.03;55.05
72525;BME280;60547;48.502;8.996;2022-09-01T11:13:51;98094.97;;;20.94;55.38
72525;BME280;60547;48.502;8.996;2022-09-01T11:18:55;98085.38;;;20.55;56.04
72525;BME280;60547;48.502;8.996;2022-09-01T11:21:27;98087.25;;;20.38;56.87
72525;BME280;60547;48.502;8.996;2022-09-01T11:26:56;98096.81;;;21.29;54.00
72525;BME280;60547;48.502;8.996;2022-09-01T11:32:37;98094.81;;;21.89;52.42
72525;BME280;60547;48.502;8.996;2022-09-01T11:35:06;98084.22;;;21.84;51.71
72525;BME280;60547;48.502;8.996;2022-09-01T11:37:38;98083.72;;;21.91;53.53
72525;BME280;60547;48.502;8.996;2022-09-01T11:40:05;98082.34;;;21.70;53.33
72525;BME280;60547;48.502;8.996;2022-09-01T11:42:42;98084.44;;;21.75;52.33
72525;BME280;60547;48.502;8.996;2022-09-01T11:45:17;98078.44;;;22.15;51.42
72525;BME280;60547;48.502;8.996;2022-09-01T11:47:49;98081.59;;;22.51;49.91
72525;BME280;60547;48.502;8.996;2022-09-01T11:50:20;98085.06;;;22.01;51.83
72525;BME280;60547;48.502;8.996;2022-09-01T11:52:55;98085.09;;;22.07;51.83
72525;BME280;60547;48.502;8.996;2022-09-01T11:55:30;98072.31;;;22.39;51.01
72525;BME280;60547;48.502;8.996;2022-09-01T11:57:56;98079.34;;;21.90;52.93
72525;BME280;60547;48.502;8.996;2022-09-01T12:00:28;98082.66;;;21.29;53.44
72525;BME280;60547;48.502;8.996;2022-09-01T12:02:54;98073.69;;;21.36;53.55
72525;BME280;60547;48.502;8.996;2022-09-01T12:07:49;98080.53;;;22.32;51.03
72525;BME280;60547;48.502;8.996;2022-09-01T12:10:28;98072.75;;;22.15;50.85
72525;BME280;60547;48.502;8.996;2022-09-01T12:13:16;98068.47;;;21.72;51.49
72525;BME280;60547;48.502;8.996;2022-09-01T12:15:42;98072.22;;;22.06;50.92
72525;BME280;60547;48.502;8.996;2022-09-01T12:18:29;98066.66;;;22.50;49.61
72525;BME280;60547;48.502;8.996;2022-09-01T12:20:57;98056.34;;;22.64;50.22
72525;BME280;60547;48.502;8.996;2022-09-01T12:23:35;98079.84;;;22.81;48.38
72525;BME280;60547;48.502;8.996;2022-09-01T12:26:05;98071.59;;;23.06;47.79
72525;BME280;60547;48.502;8.996;2022-09-01T12:28:31;98073.91;;;23.07;47.96
72525;BME280;60547;48.502;8.996;2022-09-01T12:31:13;98065.31;;;23.46;47.53
72525;BME280;60547;48.502;8.996;2022-09-01T12:33:41;98068.22;;;23.13;47.06
72525;BME280;60547;48.502;8.996;2022-09-01T12:38:50;98064.84;;;22.75;46.52
72525;BME280;60547;48.502;8.996;2022-09-01T12:41:25;98068.94;;;22.35;46.33
72525;BME280;60547;48.502;8.996;2022-09-01T12:43:51;98064.84;;;22.64;44.77
72525;BME280;60547;48.502;8.996;2022-09-01T12:46:42;98065.41;;;22.79;45.30
72525;BME280;60547;48.502;8.996;2022-09-01T12:49:41;98063.84;;;23.12;45.88
72525;BME280;60547;48.502;8.996;2022-09-01T12:54:45;98058.19;;;23.92;45.18
72525;BME280;60547;48.502;8.996;2022-09-01T12:57:24;98054.84;;;23.88;43.79
72525;BME280;60547;48.502;8.996;2022-09-01T13:02:47;98060.94;;;24.14;45.34
72525;BME280;60547;48.502;8.996;2022-09-01T13:05:31;98052.09;;;24.24;42.89
72525;BME280;60547;48.502;8.996;2022-09-01T13:08:00;98048.09;;;24.43;42.34
72525;BME280;60547;48.502;8.996;2022-09-01T13:10:31;98048.88;;;24.44;42.04
72525;BME280;60547;48.502;8.996;2022-09-01T13:12:56;98048.09;;;24.43;41.42
72525;BME280;60547;48.502;8.996;2022-09-01T13:15:22;98047.16;;;24.30;42.85
72525;BME280;60547;48.502;8.996;2022-09-01T13:17:50;98047.22;;;24.13;42.00
72525;BME280;60547;48.502;8.996;2022-09-01T13:20:16;98044.66;;;24.09;42.35
72525;BME280;60547;48.502;8.996;2022-09-01T13:22:42;98024.50;;;24.54;44.39
72525;BME280;60547;48.502;8.996;2022-09-01T13:25:10;98028.25;;;24.68;41.68
72525;BME280;60547;48.502;8.996;2022-09-01T13:27:38;98032.69;;;24.28;42.71
72525;BME280;60547;48.502;8.996;2022-09-01T13:30:10;98032.38;;;24.37;43.07
72525;BME280;60547;48.502;8.996;2022-09-01T13:32:36;98027.38;;;24.48;42.20
72525;BME280;60547;48.502;8.996;2022-09-01T13:35:01;98020.69;;;23.99;42.92
72525;BME280;60547;48.502;8.996;2022-09-01T13:37:27;98027.66;;;24.45;42.96
72525;BME280;60547;48.502;8.996;2022-09-01T13:39:52;98013.78;;;24.66;43.31
72525;BME280;60547;48.502;8.996;2022-09-01T13:42:18;98021.03;;;24.67;42.87
72525;BME280;60547;48.502;8.996;2022-09-01T13:44:44;98029.69;;;24.09;44.91
72525;BME280;60547;48.502;8.996;2022-09-01T13:47:11;98017.06;;;23.30;46.56
72525;BME280;60547;48.502;8.996;2022-09-01T13:49:36;98033.13;;;22.71;48.10
72525;BME280;60547;48.502;8.996;2022-09-01T13:52:02;98033.63;;;22.31;48.87
72525;BME280;60547;48.502;8.996;2022-09-01T13:54:27;98027.16;;;22.24;48.44
72525;BME280;60547;48.502;8.996;2022-09-01T13:56:53;98015.28;;;22.09;49.19
72525;BME280;60547;48.502;8.996;2022-09-01T13:59:18;98025.59;;;22.12;49.78
72525;BME280;60547;48.502;8.996;2022-09-01T14:01:44;98019.66;;;22.05;49.59
72525;BME280;60547;48.502;8.996;2022-09-01T14:04:10;98010.38;;;22.04;50.10
72525;BME280;60547;48.502;8.996;2022-09-01T14:06:40;98010.38;;;22.15;49.89
72525;BME280;60547;48.502;8.996;2022-09-01T14:09:12;98018.91;;;22.21;49.49
72525;BME280;60547;48.502;8.996;2022-09-01T14:11:38;98010.94;;;22.36;48.67